createdAt,value
2022-09-14T00:01:38.724Z,99656.02
2022-09-14T00:04:11.642Z,99653.08
2022-09-14T00:06:39.742Z,99650.34
2022-09-14T00:09:08.412Z,99645.88
2022-09-14T00:11:37.878Z,99645.86
2022-09-14T00:14:07.266Z,99639.38
2022-09-14T00:16:41.084Z,99643.05
2022-09-14T00:19:23.044Z,99646.02
2022-09-14T00:21:55.128Z,99641.36
2022-09-14T00:24:25.838Z,99644.85
2022-09-14T00:26:54.063Z,99637.81
2022-09-14T00:29:21.789Z,99640.19
2022-09-14T00:31:49.645Z,99638.89
2022-09-14T00:34:19.098Z,99638.45
2022-09-14T00:36:50.028Z,99636.61
2022-09-14T00:39:21.511Z,99641.38
2022-09-14T00:41:51.279Z,99639.64
2022-09-14T00:44:18.895Z,99640.90
2022-09-14T00:46:50.443Z,99644.88
2022-09-14T00:49:42.181Z,99648.63
2022-09-14T00:52:25.713Z,99645.46
2022-09-14T00:54:58.660Z,99645.49
2022-09-14T00:57:35.906Z,99644.20
2022-09-14T01:00:07.923Z,99647.06
2022-09-14T01:02:35.996Z,99644.39
2022-09-14T01:05:04.790Z,99644.61
2022-09-14T01:08:00.158Z,99646.60
2022-09-14T01:11:04.795Z,99649.09
2022-09-14T01:14:01.695Z,99648.81
2022-09-14T01:16:41.372Z,99648.09
2022-09-14T01:19:29.574Z,99642.56
2022-09-14T01:22:05.081Z,99643.99
2022-09-14T01:24:53.001Z,99641.69
2022-09-14T01:27:35.365Z,99643.73
2022-09-14T01:30:07.565Z,99643.63
2022-09-14T01:33:01.737Z,99643.55
2022-09-14T01:35:38.770Z,99640.58
2022-09-14T01:38:21.811Z,99640.33
2022-09-14T01:40:50.827Z,99640.23
2022-09-14T01:43:46.263Z,99632.83
2022-09-14T01:46:31.263Z,99635.16
2022-09-14T01:49:18.447Z,99627.75
2022-09-14T01:51:52.185Z,99624.95
2022-09-14T01:54:31.998Z,99620.55
2022-09-14T01:57:22.827Z,99624.91
2022-09-14T01:59:56.442Z,99626.47
2022-09-14T02:02:40.154Z,99631.09
2022-09-14T02:05:42.228Z,99625.40
2022-09-14T02:08:10.213Z,99624.73
2022-09-14T02:10:38.287Z,99622.85
2022-09-14T02:13:07.118Z,99621.70
2022-09-14T02:15:36.972Z,99623.70
2022-09-14T02:18:05.522Z,99624.69
2022-09-14T02:21:06.729Z,99622.85
2022-09-14T02:23:36.090Z,99618.67
2022-09-14T02:26:05.119Z,99617.67
2022-09-14T02:28:32.916Z,99616.54
2022-09-14T02:31:20.482Z,99614.67
2022-09-14T02:34:06.210Z,99611.27
2022-09-14T02:37:03.242Z,99613.48
2022-09-14T02:40:10.697Z,99609.63
2022-09-14T02:42:55.951Z,99605.15
2022-09-14T02:45:58.367Z,99595.02
2022-09-14T02:48:48.539Z,99592.37
2022-09-14T02:51:41.265Z,99590.73
2022-09-14T02:54:18.162Z,99593.40
2022-09-14T02:56:46.391Z,99593.81
2022-09-14T02:59:14.079Z,99594.19
2022-09-14T03:01:41.791Z,99595.06
2022-09-14T03:04:09.658Z,99599.90
2022-09-14T03:06:37.415Z,99603.33
2022-09-14T03:09:05.140Z,99601.73
2022-09-14T03:11:32.943Z,99599.35
2022-09-14T03:14:00.802Z,99590.70
2022-09-14T03:16:28.509Z,99594.06
2022-09-14T03:18:56.258Z,99592.64
2022-09-14T03:21:24.053Z,99595.35
2022-09-14T03:23:55.188Z,99598.18
2022-09-14T03:26:25.734Z,99593.92
2022-09-14T03:28:57.363Z,99598.73
2022-09-14T03:31:26.652Z,99599.73
2022-09-14T03:33:56.981Z,99598.54
2022-09-14T03:36:27.886Z,99596.26
2022-09-14T03:38:59.032Z,99595.21
2022-09-14T03:41:26.751Z,99598.92
2022-09-14T03:43:54.703Z,99599.11
2022-09-14T03:46:24.875Z,99595.98
2022-09-14T03:48:55.222Z,99595.56
2022-09-14T03:51:24.031Z,99593.89
2022-09-14T03:53:52.077Z,99593.88
2022-09-14T03:56:22.467Z,99594.48
2022-09-14T03:58:50.832Z,99592.36
2022-09-14T04:01:22.178Z,99588.79
2022-09-14T04:03:50.764Z,99595.02
2022-09-14T04:06:19.913Z,99596.20
2022-09-14T04:08:48.571Z,99596.16
2022-09-14T04:11:23.527Z,99597.09
2022-09-14T04:13:52.780Z,99598.80
2022-09-14T04:16:21.552Z,99594.38
2022-09-14T04:18:49.483Z,99589.42
2022-09-14T04:21:21.414Z,99592.55
2022-09-14T04:26:44.905Z,99587.38
2022-09-14T04:29:14.484Z,99586.46
2022-09-14T04:31:42.191Z,99590.65
2022-09-14T04:34:16.068Z,99587.86
2022-09-14T04:36:43.854Z,99588.16
2022-09-14T04:39:13.892Z,99590.09
2022-09-14T04:41:41.909Z,99595.63
2022-09-14T04:44:10.014Z,99597.63
2022-09-14T04:46:46.269Z,99597.10
2022-09-14T04:49:18.929Z,99599.63
2022-09-14T04:51:47.597Z,99602.50
2022-09-14T04:54:18.095Z,99605.18
2022-09-14T04:56:46.072Z,99606.59
2022-09-14T04:59:15.351Z,99608.34
2022-09-14T05:01:45.666Z,99612.41
2022-09-14T05:04:13.870Z,99611.79
2022-09-14T05:06:44.270Z,99617.61
2022-09-14T05:09:15.998Z,99612.01
2022-09-14T05:11:45.296Z,99611.23
2022-09-14T05:14:14.325Z,99609.04
2022-09-14T05:16:43.733Z,99618.06
2022-09-14T05:19:18.271Z,99618.35
2022-09-14T05:21:46.987Z,99615.69
2022-09-14T05:24:19.097Z,99614.56
2022-09-14T05:26:47.726Z,99618.57
2022-09-14T05:29:18.485Z,99614.11
2022-09-14T05:31:47.252Z,99621.17
2022-09-14T05:34:17.598Z,99619.85
2022-09-14T05:36:45.374Z,99617.65
2022-09-14T05:39:13.239Z,99614.87
2022-09-14T05:41:40.976Z,99615.20
2022-09-14T05:44:08.851Z,99613.14
2022-09-14T05:46:36.794Z,99612.73
2022-09-14T05:49:04.768Z,99612.93
2022-09-14T05:51:32.922Z,99613.57
2022-09-14T05:54:00.978Z,99614.20
2022-09-14T05:56:31.562Z,99608.38
2022-09-14T05:59:00.374Z,99608.80
2022-09-14T06:01:32.735Z,99606.38
2022-09-14T06:04:02.765Z,99609.82
2022-09-14T06:06:32.389Z,99613.37
2022-09-14T06:09:01.190Z,99609.64
2022-09-14T06:11:33.166Z,99611.05
2022-09-14T06:14:01.007Z,99612.73
2022-09-14T06:16:29.278Z,99615.40
2022-09-14T06:18:59.178Z,99619.36
2022-09-14T06:21:36.320Z,99615.23
2022-09-14T06:24:04.488Z,99608.18
2022-09-14T06:26:32.355Z,99605.72
2022-09-14T06:29:00.214Z,99611.05
2022-09-14T06:31:28.111Z,99609.31
2022-09-14T06:33:56.082Z,99610.49
2022-09-14T06:36:26.666Z,99613.02
2022-09-14T06:38:55.672Z,99618.56
2022-09-14T06:41:28.977Z,99622.45
2022-09-14T06:43:59.491Z,99623.45
2022-09-14T06:46:31.728Z,99628.80
2022-09-14T06:49:07.412Z,99626.63
2022-09-14T06:51:44.728Z,99623.43
2022-09-14T06:54:15.497Z,99619.25
2022-09-14T06:56:45.219Z,99620.27
2022-09-14T06:59:16.107Z,99617.38
2022-09-14T07:01:51.338Z,99623.48
2022-09-14T07:04:19.130Z,99627.64
2022-09-14T07:06:50.474Z,99630.30
2022-09-14T07:09:19.527Z,99628.36
2022-09-14T07:11:47.826Z,99625.75
2022-09-14T07:14:15.624Z,99623.18
2022-09-14T07:16:43.384Z,99618.32
2022-09-14T07:19:13.844Z,99626.15
2022-09-14T07:21:43.001Z,99621.13
2022-09-14T07:24:14.738Z,99619.80
2022-09-14T07:26:43.287Z,99621.77
2022-09-14T07:29:16.388Z,99621.86
2022-09-14T07:31:52.208Z,99622.77
2022-09-14T07:34:20.540Z,99622.26
2022-09-14T07:36:48.309Z,99625.90
2022-09-14T07:39:17.755Z,99630.06
2022-09-14T07:41:45.538Z,99627.20
2022-09-14T07:44:16.351Z,99626.86
2022-09-14T07:46:46.588Z,99633.05
2022-09-14T07:49:16.456Z,99632.03
2022-09-14T07:51:45.401Z,99628.39
2022-09-14T07:54:16.453Z,99625.23
2022-09-14T07:56:45.402Z,99622.95
2022-09-14T07:59:35.014Z,99622.44
2022-09-14T08:02:04.643Z,99625.80
2022-09-14T08:04:34.806Z,99622.92
2022-09-14T08:07:03.403Z,99626.02
2022-09-14T08:09:31.226Z,99625.25
2022-09-14T08:11:58.965Z,99623.64
2022-09-14T08:14:26.766Z,99624.61
2022-09-14T08:16:54.597Z,99629.04
2022-09-14T08:19:22.734Z,99625.45
2022-09-14T08:21:51.135Z,99629.02
2022-09-14T08:24:21.809Z,99621.23
2022-09-14T08:26:49.614Z,99622.85
2022-09-14T08:29:19.329Z,99615.36
2022-09-14T08:31:48.501Z,99610.20
2022-09-14T08:34:16.812Z,99608.64
2022-09-14T08:36:46.767Z,99608.00
2022-09-14T08:39:17.023Z,99606.90
2022-09-14T08:41:55.587Z,99604.40
2022-09-14T08:44:58.246Z,99600.10
2022-09-14T08:47:32.151Z,99601.33
2022-09-14T08:50:17.711Z,99602.27
2022-09-14T08:52:53.006Z,99606.55
2022-09-14T08:55:45.910Z,99606.62
2022-09-14T08:59:13.983Z,99605.30
2022-09-14T09:02:31.666Z,99596.88
2022-09-14T09:05:33.202Z,99600.30
2022-09-14T09:08:23.188Z,99603.70
2022-09-14T09:10:54.440Z,99602.63
2022-09-14T09:13:29.159Z,99610.07
2022-09-14T09:16:06.191Z,99609.60
2022-09-14T09:18:49.635Z,99609.50
2022-09-14T09:21:27.566Z,99605.77
2022-09-14T09:24:16.793Z,99602.21
2022-09-14T09:26:44.539Z,99602.34
2022-09-14T09:29:12.472Z,99601.78
2022-09-14T09:31:59.513Z,99602.70
2022-09-14T09:34:51.456Z,99599.41
2022-09-14T09:37:34.560Z,99598.46
2022-09-14T09:40:03.552Z,99597.58
2022-09-14T09:42:31.572Z,99600.17
2022-09-14T09:45:04.046Z,99595.11
2022-09-14T09:47:41.015Z,99592.23
2022-09-14T09:50:20.472Z,99595.48
2022-09-14T09:53:02.216Z,99594.70
2022-09-14T09:55:39.446Z,99593.84
2022-09-14T09:58:38.651Z,99588.05
2022-09-14T10:01:23.229Z,99594.01
2022-09-14T10:04:16.715Z,99596.26
2022-09-14T10:06:49.371Z,99594.66
2022-09-14T10:09:23.542Z,99590.65
2022-09-14T10:12:03.814Z,99586.92
2022-09-14T10:14:37.573Z,99585.25
2022-09-14T10:17:23.552Z,99580.42
2022-09-14T10:19:54.354Z,99581.09
2022-09-14T10:22:48.691Z,99576.35
2022-09-14T10:25:16.303Z,99579.52
2022-09-14T10:27:56.114Z,99578.97
2022-09-14T10:30:34.526Z,99576.38
2022-09-14T10:33:06.561Z,99575.85
2022-09-14T10:36:25.994Z,99572.19
2022-09-14T10:39:14.245Z,99565.83
2022-09-14T10:42:05.972Z,99561.84
2022-09-14T10:44:58.511Z,99554.52
2022-09-14T10:47:56.154Z,99555.16
2022-09-14T10:50:53.139Z,99550.27
2022-09-14T10:54:13.946Z,99553.45
2022-09-14T10:57:13.079Z,99548.91
2022-09-14T11:00:01.978Z,99540.45
2022-09-14T11:03:03.959Z,99537.24
2022-09-14T11:05:42.647Z,99540.38
2022-09-14T11:08:33.354Z,99537.05
2022-09-14T11:11:36.987Z,99535.08
2022-09-14T11:14:43.911Z,99541.94
2022-09-14T11:17:40.331Z,99536.77
2022-09-14T11:21:03.295Z,99531.89
2022-09-14T11:24:13.557Z,99533.89
2022-09-14T11:26:57.679Z,99537.02
2022-09-14T11:29:33.690Z,99544.20
2022-09-14T11:32:23.482Z,99541.58
2022-09-14T11:35:03.258Z,99538.66
2022-09-14T11:37:41.467Z,99528.23
2022-09-14T11:40:34.404Z,99518.20
2022-09-14T11:43:29.560Z,99510.83
2022-09-14T11:46:15.961Z,99517.51
2022-09-14T11:49:14.296Z,99517.48
2022-09-14T11:52:21.350Z,99515.55
2022-09-14T11:54:51.150Z,99515.46
2022-09-14T11:57:26.177Z,99517.28
2022-09-14T12:00:00.707Z,99516.23
2022-09-14T12:02:28.582Z,99507.48
2022-09-14T12:05:05.571Z,99509.70
2022-09-14T12:08:01.871Z,99518.08
2022-09-14T12:10:31.032Z,99517.98
2022-09-14T12:13:20.329Z,99518.45
2022-09-14T12:15:48.239Z,99520.90
2022-09-14T12:18:23.388Z,99515.64
2022-09-14T12:21:20.709Z,99514.17
2022-09-14T12:23:53.241Z,99522.15
2022-09-14T12:26:20.969Z,99524.08
2022-09-14T12:28:56.231Z,99526.46
2022-09-14T12:32:01.353Z,99522.55
2022-09-14T12:34:33.162Z,99522.06
2022-09-14T12:37:30.637Z,99521.66
2022-09-14T12:40:20.787Z,99513.63
2022-09-14T12:42:49.189Z,99506.69
2022-09-14T12:46:08.222Z,99501.67
2022-09-14T12:48:53.049Z,99495.64
2022-09-14T12:51:45.518Z,99497.84
2022-09-14T12:54:51.188Z,99496.27
2022-09-14T12:57:42.396Z,99495.22
2022-09-14T13:00:19.967Z,99492.70
2022-09-14T13:03:42.056Z,99492.66
2022-09-14T13:06:13.555Z,99482.40
2022-09-14T13:08:48.100Z,99483.94
2022-09-14T13:11:37.209Z,99488.05
2022-09-14T13:14:05.331Z,99484.73
2022-09-14T13:16:44.194Z,99488.34
2022-09-14T13:19:33.955Z,99487.45
2022-09-14T13:22:02.945Z,99482.56
2022-09-14T13:24:52.002Z,99480.02
2022-09-14T13:27:25.666Z,99485.01
2022-09-14T13:30:11.317Z,99481.81
2022-09-14T13:32:45.990Z,99476.45
2022-09-14T13:35:48.976Z,99473.33
2022-09-14T13:38:31.046Z,99463.22
2022-09-14T13:41:12.301Z,99457.27
2022-09-14T13:43:41.870Z,99455.05
2022-09-14T13:46:18.400Z,99454.51
2022-09-14T13:48:49.783Z,99456.31
2022-09-14T13:51:23.763Z,99454.23
2022-09-14T13:53:55.667Z,99453.09
2022-09-14T13:56:32.334Z,99444.73
2022-09-14T13:59:12.061Z,99444.77
2022-09-14T14:01:50.244Z,99444.78
2022-09-14T14:04:39.379Z,99442.61
2022-09-14T14:07:25.301Z,99445.40
2022-09-14T14:09:59.719Z,99441.81
2022-09-14T14:12:32.102Z,99438.77
2022-09-14T14:15:06.157Z,99441.00
2022-09-14T14:17:39.823Z,99439.54
2022-09-14T14:20:26.477Z,99432.15
2022-09-14T14:23:13.253Z,99434.27
2022-09-14T14:25:51.893Z,99432.59
2022-09-14T14:28:26.854Z,99431.55
2022-09-14T14:30:57.628Z,99423.67
2022-09-14T14:33:26.128Z,99422.42
2022-09-14T14:35:56.707Z,99416.00
2022-09-14T14:38:25.465Z,99406.38
2022-09-14T14:40:55.609Z,99411.04
2022-09-14T14:43:26.222Z,99413.81
2022-09-14T14:46:01.682Z,99413.39
2022-09-14T14:48:29.943Z,99419.16
2022-09-14T14:50:58.058Z,99415.30
2022-09-14T14:53:26.404Z,99412.14
2022-09-14T14:55:54.422Z,99412.81
2022-09-14T14:58:23.349Z,99407.86
2022-09-14T15:00:52.898Z,99410.73
2022-09-14T15:03:20.743Z,99416.80
2022-09-14T15:05:49.731Z,99413.90
2022-09-14T15:08:19.996Z,99411.73
2022-09-14T15:10:48.832Z,99415.40
2022-09-14T15:13:16.576Z,99416.27
2022-09-14T15:15:44.992Z,99411.98
2022-09-14T15:18:12.768Z,99402.09
2022-09-14T15:20:41.256Z,99397.74
2022-09-14T15:23:14.007Z,99393.41
2022-09-14T15:25:41.684Z,99389.66
2022-09-14T15:28:09.386Z,99393.30
2022-09-14T15:30:38.351Z,99398.14
2022-09-14T15:33:06.188Z,99396.77
2022-09-14T15:35:33.885Z,99401.43
2022-09-14T15:38:01.740Z,99409.09
2022-09-14T15:40:29.570Z,99405.56
2022-09-14T15:42:57.310Z,99399.97
2022-09-14T15:45:25.192Z,99400.59
2022-09-14T15:47:53.005Z,99398.05
2022-09-14T15:50:20.774Z,99402.63
2022-09-14T15:52:48.475Z,99404.85
2022-09-14T15:55:16.355Z,99409.19
2022-09-14T15:57:44.178Z,99412.38
2022-09-14T16:00:14.719Z,99408.90
2022-09-14T16:02:43.977Z,99407.55
2022-09-14T16:05:12.866Z,99405.91
2022-09-14T16:07:40.722Z,99403.08
2022-09-14T16:10:09.299Z,99406.10
2022-09-14T16:12:37.149Z,99399.69
2022-09-14T16:15:05.631Z,99399.94
2022-09-14T16:17:33.364Z,99402.02
2022-09-14T16:20:01.761Z,99399.35
2022-09-14T16:22:29.608Z,99398.60
2022-09-14T16:24:57.343Z,99394.84
2022-09-14T16:27:25.067Z,99392.47
2022-09-14T16:29:52.828Z,99397.55
2022-09-14T16:32:22.033Z,99397.77
2022-09-14T16:34:49.740Z,99394.55
2022-09-14T16:37:17.667Z,99394.90
2022-09-14T16:39:47.897Z,99396.23
2022-09-14T16:42:15.929Z,99394.89
2022-09-14T16:44:44.117Z,99396.46
2022-09-14T16:47:11.999Z,99393.02
2022-09-14T16:49:39.802Z,99394.58
2022-09-14T16:52:07.699Z,99394.13
2022-09-14T16:54:35.619Z,99392.35
2022-09-14T16:57:03.578Z,99393.14
2022-09-14T16:59:31.379Z,99396.80
2022-09-14T17:01:59.136Z,99396.66
2022-09-14T17:04:27.013Z,99398.69
2022-09-14T17:06:56.093Z,99401.58
2022-09-14T17:09:29.729Z,99403.27
2022-09-14T17:11:59.084Z,99405.59
2022-09-14T17:14:31.247Z,99410.15
2022-09-14T17:16:59.938Z,99408.50
2022-09-14T17:19:28.531Z,99406.03
2022-09-14T17:21:57.051Z,99406.11
2022-09-14T17:24:25.908Z,99407.84
2022-09-14T17:26:53.634Z,99412.94
2022-09-14T17:29:21.422Z,99412.56
2022-09-14T17:31:50.697Z,99411.69
2022-09-14T17:34:18.618Z,99412.63
2022-09-14T17:36:46.403Z,99412.67
2022-09-14T17:39:15.706Z,99406.59
2022-09-14T17:41:44.149Z,99409.19
2022-09-14T17:44:14.510Z,99405.66
2022-09-14T17:46:51.226Z,99399.42
2022-09-14T17:49:23.681Z,99394.78
2022-09-14T17:51:51.822Z,99400.08
2022-09-14T17:54:20.316Z,99395.64
2022-09-14T17:56:48.740Z,99393.70
2022-09-14T17:59:20.665Z,99389.36
2022-09-14T18:01:49.698Z,99393.08
2022-09-14T18:04:18.844Z,99390.30
2022-09-14T18:06:49.773Z,99392.46
2022-09-14T18:09:22.092Z,99387.52
2022-09-14T18:11:51.488Z,99383.80
2022-09-14T18:14:19.266Z,99382.11
2022-09-14T18:16:47.307Z,99384.52
2022-09-14T18:19:16.209Z,99381.74
2022-09-14T18:21:45.925Z,99379.73
2022-09-14T18:24:15.774Z,99378.45
2022-09-14T18:26:46.158Z,99376.88
2022-09-14T18:29:16.635Z,99376.23
2022-09-14T18:31:44.637Z,99374.08
2022-09-14T18:34:13.235Z,99373.31
2022-09-14T18:36:41.067Z,99372.55
2022-09-14T18:39:09.837Z,99373.94
2022-09-14T18:41:37.587Z,99372.11
2022-09-14T18:44:05.425Z,99369.39
2022-09-14T18:46:33.222Z,99369.03
2022-09-14T18:49:03.151Z,99367.67
2022-09-14T18:51:39.383Z,99364.44
2022-09-14T18:54:08.575Z,99363.23
2022-09-14T18:56:36.927Z,99358.29
2022-09-14T18:59:10.516Z,99351.16
2022-09-14T19:01:40.243Z,99347.55
2022-09-14T19:04:10.468Z,99345.66
2022-09-14T19:06:39.307Z,99346.55
2022-09-14T19:09:07.793Z,99347.11
2022-09-14T19:11:36.433Z,99354.67
2022-09-14T19:14:10.285Z,99350.38
2022-09-14T19:16:40.519Z,99351.76
2022-09-14T19:19:15.169Z,99349.16
2022-09-14T19:21:44.297Z,99352.70
2022-09-14T19:24:15.801Z,99349.62
2022-09-14T19:26:51.235Z,99347.25
2022-09-14T19:29:22.609Z,99340.79
2022-09-14T19:31:52.118Z,99342.08
2022-09-14T19:34:23.134Z,99347.04
2022-09-14T19:36:51.050Z,99340.41
2022-09-14T19:39:19.098Z,99344.85
2022-09-14T19:41:47.425Z,99341.86
2022-09-14T19:44:16.873Z,99340.33
2022-09-14T19:46:44.779Z,99340.48
2022-09-14T19:49:20.549Z,99342.17
2022-09-14T19:51:49.669Z,99341.05
2022-09-14T19:54:18.637Z,99344.46
2022-09-14T19:56:46.584Z,99347.45
2022-09-14T19:59:16.475Z,99347.84
2022-09-14T20:01:45.152Z,99343.25
2022-09-14T20:04:15.629Z,99341.27
2022-09-14T20:06:46.956Z,99344.62
2022-09-14T20:09:22.202Z,99347.30
2022-09-14T20:11:52.637Z,99347.72
2022-09-14T20:14:24.913Z,99341.94
2022-09-14T20:16:59.731Z,99331.65
2022-09-14T20:19:29.485Z,99339.54
2022-09-14T20:21:57.605Z,99339.45
2022-09-14T20:24:28.537Z,99333.21
2022-09-14T20:27:00.277Z,99334.16
2022-09-14T20:29:34.023Z,99334.13
2022-09-14T20:32:04.737Z,99332.39
2022-09-14T20:34:34.279Z,99332.11
2022-09-14T20:37:03.358Z,99335.66
2022-09-14T20:39:31.618Z,99332.81
2022-09-14T20:41:59.443Z,99329.88
2022-09-14T20:44:27.146Z,99335.90
2022-09-14T20:46:54.994Z,99327.41
2022-09-14T20:49:26.899Z,99326.64
2022-09-14T20:51:54.933Z,99323.71
2022-09-14T20:54:23.262Z,99322.30
2022-09-14T20:56:51.129Z,99328.62
2022-09-14T20:59:21.825Z,99330.88
2022-09-14T21:01:52.429Z,99322.63
2022-09-14T21:04:23.668Z,99329.61
2022-09-14T21:06:55.394Z,99329.00
2022-09-14T21:09:25.510Z,99329.27
2022-09-14T21:11:54.338Z,99335.36
2022-09-14T21:14:22.567Z,99328.15
2022-09-14T21:16:56.444Z,99323.02
2022-09-14T21:19:28.248Z,99325.52
2022-09-14T21:21:56.918Z,99316.91
2022-09-14T21:24:25.310Z,99314.80
2022-09-14T21:26:53.422Z,99316.50
2022-09-14T21:29:23.631Z,99317.77
2022-09-14T21:31:52.779Z,99317.58
2022-09-14T21:34:21.373Z,99307.98
2022-09-14T21:36:51.653Z,99314.24
2022-09-14T21:39:23.987Z,99316.02
2022-09-14T21:41:58.833Z,99309.06
2022-09-14T21:44:34.237Z,99313.52
2022-09-14T21:47:04.404Z,99313.88
2022-09-14T21:49:32.353Z,99308.80
2022-09-14T21:52:00.175Z,99311.20
2022-09-14T21:54:28.327Z,99311.48
2022-09-14T21:56:56.691Z,99308.83
2022-09-14T21:59:24.738Z,99306.95
2022-09-14T22:01:52.967Z,99302.13
2022-09-14T22:04:23.877Z,99297.80
2022-09-14T22:06:53.346Z,99294.82
2022-09-14T22:09:25.384Z,99295.89
2022-09-14T22:11:53.821Z,99298.76
2022-09-14T22:14:25.874Z,99294.61
2022-09-14T22:16:54.371Z,99299.81
2022-09-14T22:19:29.937Z,99301.77
2022-09-14T22:21:58.282Z,99306.52
2022-09-14T22:24:37.475Z,99303.58
2022-09-14T22:27:09.491Z,99295.30
2022-09-14T22:29:40.526Z,99298.66
2022-09-14T22:32:11.064Z,99294.61
2022-09-14T22:34:42.310Z,99296.21
2022-09-14T22:37:11.580Z,99288.65
2022-09-14T22:39:39.278Z,99288.55
2022-09-14T22:42:07.053Z,99287.23
2022-09-14T22:44:34.765Z,99286.55
2022-09-14T22:47:02.459Z,99286.95
2022-09-14T22:49:30.737Z,99285.11
2022-09-14T22:51:58.462Z,99284.80
2022-09-14T22:54:26.162Z,99289.60
2022-09-14T22:56:53.878Z,99291.70
2022-09-14T22:59:21.772Z,99288.70
2022-09-14T23:01:49.537Z,99284.50
2022-09-14T23:04:17.366Z,99278.28
2022-09-14T23:06:47.982Z,99279.88
2022-09-14T23:09:20.290Z,99282.58
2022-09-14T23:11:48.708Z,99283.22
2022-09-14T23:14:17.306Z,99286.52
2022-09-14T23:16:45.680Z,99286.65
2022-09-14T23:19:18.206Z,99278.88
2022-09-14T23:21:46.835Z,99268.69
2022-09-14T23:24:15.050Z,99268.20
2022-09-14T23:26:43.082Z,99266.98
2022-09-14T23:29:15.764Z,99270.16
2022-09-14T23:31:44.455Z,99269.19
2022-09-14T23:34:12.560Z,99265.13
2022-09-14T23:36:40.441Z,99262.52
2022-09-14T23:39:08.288Z,99257.14
2022-09-14T23:41:36.015Z,99256.99
2022-09-14T23:44:04.115Z,99243.95
2022-09-14T23:46:32.423Z,99241.65
2022-09-14T23:49:00.085Z,99245.81
2022-09-14T23:51:27.799Z,99241.61
2022-09-14T23:53:55.524Z,99238.70
2022-09-14T23:56:23.625Z,99236.56
2022-09-14T23:58:51.731Z,99234.62
